createdAt,value
2022-12-14T00:01:34.995Z,100412.06
2022-12-14T00:04:01.609Z,100413.06
2022-12-14T00:06:32.592Z,100414.81
2022-12-14T00:09:01.660Z,100404.56
2022-12-14T00:11:29.607Z,100411.25
2022-12-14T00:13:58.612Z,100404.56
2022-12-14T00:16:27.681Z,100398.66
2022-12-14T00:18:55.977Z,100396.94
2022-12-14T00:21:23.467Z,100393.69
2022-12-14T00:23:51.593Z,100389.44
2022-12-14T00:26:20.907Z,100386.78
2022-12-14T00:28:49.379Z,100388.50
2022-12-14T00:31:16.189Z,100379.19
2022-12-14T00:33:43.152Z,100384.09
2022-12-14T00:36:11.859Z,100373.81
2022-12-14T00:38:38.931Z,100377.91
2022-12-14T00:41:06.463Z,100374.38
2022-12-14T00:43:33.572Z,100379.34
2022-12-14T00:46:00.287Z,100377.91
2022-12-14T00:48:27.825Z,100377.25
2022-12-14T00:50:55.978Z,100379.00
2022-12-14T00:53:23.996Z,100369.56
2022-12-14T00:55:51.321Z,100366.75
2022-12-14T00:58:21.342Z,100365.84
2022-12-14T01:00:57.833Z,100358.22
2022-12-14T01:03:24.875Z,100352.44
2022-12-14T01:05:51.684Z,100351.81
2022-12-14T01:08:20.545Z,100353.63
2022-12-14T01:10:47.267Z,100351.88
2022-12-14T01:13:13.861Z,100350.16
2022-12-14T01:15:40.535Z,100345.09
2022-12-14T01:18:09.460Z,100344.19
2022-12-14T01:20:36.026Z,100340.72
2022-12-14T01:23:02.642Z,100338.19
2022-12-14T01:25:30.346Z,100330.59
2022-12-14T01:27:56.851Z,100333.06
2022-12-14T01:30:23.459Z,100333.13
2022-12-14T01:32:51.087Z,100329.03
2022-12-14T01:35:17.644Z,100328.25
2022-12-14T01:37:44.498Z,100332.41
2022-12-14T01:40:12.593Z,100326.44
2022-12-14T01:42:39.259Z,100329.03
2022-12-14T01:45:06.693Z,100323.19
2022-12-14T01:48:00.879Z,100319.09
2022-12-14T01:50:39.940Z,100315.84
2022-12-14T01:53:10.036Z,100314.94
2022-12-14T01:55:42.988Z,100310.94
2022-12-14T01:58:28.914Z,100306.22
2022-12-14T02:00:59.566Z,100308.97
2022-12-14T02:03:33.646Z,100306.78
2022-12-14T02:06:08.319Z,100301.91
2022-12-14T02:08:35.820Z,100293.66
2022-12-14T02:11:03.095Z,100288.69
2022-12-14T02:13:37.330Z,100279.66
2022-12-14T02:16:04.401Z,100286.72
2022-12-14T02:18:32.393Z,100285.28
2022-12-14T02:21:20.403Z,100278.84
2022-12-14T02:24:11.875Z,100269.13
2022-12-14T02:27:03.498Z,100265.97
2022-12-14T02:29:46.055Z,100263.00
2022-12-14T02:32:39.240Z,100258.81
2022-12-14T02:35:39.635Z,100264.81
2022-12-14T02:38:30.932Z,100260.81
2022-12-14T02:41:06.899Z,100256.00
2022-12-14T02:43:36.545Z,100256.22
2022-12-14T02:46:04.231Z,100258.00
2022-12-14T02:48:41.735Z,100258.19
2022-12-14T02:51:55.680Z,100246.63
2022-12-14T02:54:37.933Z,100241.97
2022-12-14T02:57:13.848Z,100248.31
2022-12-14T02:59:41.695Z,100238.44
2022-12-14T03:02:11.066Z,100241.03
2022-12-14T03:04:46.103Z,100233.53
2022-12-14T03:07:34.646Z,100224.41
2022-12-14T03:10:19.444Z,100229.72
2022-12-14T03:12:55.030Z,100222.34
2022-12-14T03:15:26.685Z,100225.84
2022-12-14T03:17:57.940Z,100225.94
2022-12-14T03:20:26.809Z,100221.84
2022-12-14T03:23:08.007Z,100217.69
2022-12-14T03:26:08.741Z,100216.16
2022-12-14T03:28:50.747Z,100215.44
2022-12-14T03:31:34.865Z,100211.34
2022-12-14T03:34:05.359Z,100211.34
2022-12-14T03:36:43.957Z,100208.00
2022-12-14T03:39:17.632Z,100210.63
2022-12-14T03:41:48.967Z,100202.22
2022-12-14T03:44:23.900Z,100189.66
2022-12-14T03:47:31.105Z,100191.38
2022-12-14T03:50:13.234Z,100194.06
2022-12-14T03:52:42.320Z,100186.63
2022-12-14T03:55:20.773Z,100188.53
2022-12-14T03:57:53.723Z,100176.06
2022-12-14T04:00:24.715Z,100177.03
2022-12-14T04:03:09.435Z,100174.59
2022-12-14T04:05:48.526Z,100172.16
2022-12-14T04:08:25.170Z,100165.47
2022-12-14T04:11:14.544Z,100161.41
2022-12-14T04:14:11.844Z,100165.63
2022-12-14T04:17:01.465Z,100165.63
2022-12-14T04:19:53.772Z,100160.56
2022-12-14T04:22:27.998Z,100165.63
2022-12-14T04:25:13.161Z,100153.06
2022-12-14T04:27:47.626Z,100156.34
2022-12-14T04:30:16.541Z,100153.91
2022-12-14T04:32:46.225Z,100155.72
2022-12-14T04:35:20.910Z,100146.41
2022-12-14T04:37:59.454Z,100141.25
2022-12-14T04:40:44.402Z,100136.34
2022-12-14T04:43:18.456Z,100140.69
2022-12-14T04:46:13.543Z,100135.78
2022-12-14T04:48:54.727Z,100139.25
2022-12-14T04:51:41.999Z,100143.47
2022-12-14T04:54:22.506Z,100138.59
2022-12-14T04:56:54.971Z,100127.84
2022-12-14T04:59:22.637Z,100130.28
2022-12-14T05:02:08.225Z,100121.88
2022-12-14T05:04:55.526Z,100123.59
2022-12-14T05:07:40.020Z,100110.13
2022-12-14T05:10:13.601Z,100113.66
2022-12-14T05:12:57.885Z,100106.16
2022-12-14T05:15:32.780Z,100096.09
2022-12-14T05:18:04.018Z,100099.72
2022-12-14T05:20:30.645Z,100100.81
2022-12-14T05:22:58.772Z,100100.88
2022-12-14T05:25:25.369Z,100104.41
2022-12-14T05:27:52.202Z,100095.34
2022-12-14T05:30:19.040Z,100094.78
2022-12-14T05:32:45.920Z,100094.97
2022-12-14T05:35:15.229Z,100089.00
2022-12-14T05:37:43.111Z,100085.75
2022-12-14T05:40:10.213Z,100086.47
2022-12-14T05:42:42.618Z,100082.34
2022-12-14T05:45:14.546Z,100081.50
2022-12-14T05:47:41.385Z,100074.81
2022-12-14T05:50:08.679Z,100072.28
2022-12-14T05:52:36.301Z,100074.19
2022-12-14T05:55:04.709Z,100067.59
2022-12-14T05:57:32.070Z,100061.81
2022-12-14T05:59:58.732Z,100064.34
2022-12-14T06:02:25.371Z,100066.13
2022-12-14T06:04:52.348Z,100076.16
2022-12-14T06:07:21.788Z,100076.97
2022-12-14T06:09:52.696Z,100061.72
2022-12-14T06:12:19.378Z,100065.16
2022-12-14T06:14:46.248Z,100062.63
2022-12-14T06:17:13.046Z,100057.63
2022-12-14T06:19:39.664Z,100062.06
2022-12-14T06:22:06.404Z,100059.53
2022-12-14T06:24:33.109Z,100060.44
2022-12-14T06:26:59.971Z,100056.34
2022-12-14T06:29:26.573Z,100056.34
2022-12-14T06:31:53.482Z,100059.63
2022-12-14T06:34:23.571Z,100058.81
2022-12-14T06:36:54.952Z,100056.28
2022-12-14T06:39:21.683Z,100063.06
2022-12-14T06:41:51.939Z,100062.31
2022-12-14T06:44:19.136Z,100071.78
2022-12-14T06:46:46.535Z,100063.66
2022-12-14T06:49:16.585Z,100066.44
2022-12-14T06:51:43.989Z,100064.91
2022-12-14T06:54:12.386Z,100064.22
2022-12-14T06:56:39.388Z,100061.06
2022-12-14T06:59:09.747Z,100062.13
2022-12-14T07:01:38.424Z,100066.69
2022-12-14T07:04:06.820Z,100060.19
2022-12-14T07:06:36.876Z,100059.63
2022-12-14T07:09:05.113Z,100065.66
2022-12-14T07:11:32.266Z,100061.56
2022-12-14T07:14:06.070Z,100051.66
2022-12-14T07:16:35.434Z,100054.44
2022-12-14T07:19:02.400Z,100060.47
2022-12-14T07:21:29.445Z,100063.88
2022-12-14T07:24:00.200Z,100059.06
2022-12-14T07:26:27.663Z,100058.44
2022-12-14T07:28:55.134Z,100066.06
2022-12-14T07:31:25.192Z,100075.44
2022-12-14T07:33:54.364Z,100079.03
2022-12-14T07:36:23.443Z,100076.69
2022-12-14T07:38:51.701Z,100079.53
2022-12-14T07:41:36.969Z,100068.72
2022-12-14T07:44:03.743Z,100063.00
2022-12-14T07:46:32.379Z,100078.47
2022-12-14T07:49:00.586Z,100078.59
2022-12-14T07:51:32.647Z,100077.16
2022-12-14T07:54:01.589Z,100078.22
2022-12-14T07:56:31.341Z,100072.34
2022-12-14T07:58:59.729Z,100074.03
2022-12-14T08:01:29.124Z,100083.50
2022-12-14T08:03:58.781Z,100080.22
2022-12-14T08:06:28.327Z,100088.59
2022-12-14T08:08:56.095Z,100086.25
2022-12-14T08:11:23.377Z,100089.75
2022-12-14T08:13:58.024Z,100088.19
2022-12-14T08:16:25.882Z,100094.06
2022-12-14T08:18:53.970Z,100082.31
2022-12-14T08:21:22.235Z,100086.38
2022-12-14T08:23:50.045Z,100083.00
2022-12-14T08:26:18.072Z,100088.69
2022-12-14T08:28:45.066Z,100091.22
2022-12-14T08:31:20.513Z,100080.22
2022-12-14T08:33:48.257Z,100081.03
2022-12-14T08:36:18.345Z,100081.13
2022-12-14T08:38:45.590Z,100081.03
2022-12-14T08:41:15.187Z,100080.28
2022-12-14T08:43:42.103Z,100076.97
2022-12-14T08:46:10.543Z,100081.19
2022-12-14T08:48:37.926Z,100086.16
2022-12-14T08:51:09.494Z,100087.72
2022-12-14T08:53:37.394Z,100076.50
2022-12-14T08:56:05.679Z,100084.72
2022-12-14T08:58:33.911Z,100088.78
2022-12-14T09:01:06.568Z,100088.66
2022-12-14T09:03:33.831Z,100092.41
2022-12-14T09:06:09.252Z,100087.09
2022-12-14T09:08:36.456Z,100084.50
2022-12-14T09:11:04.978Z,100088.41
2022-12-14T09:13:33.886Z,100086.59
2022-12-14T09:16:05.142Z,100091.50
2022-12-14T09:18:32.806Z,100088.00
2022-12-14T09:21:00.815Z,100087.66
2022-12-14T09:23:30.517Z,100078.03
2022-12-14T09:26:11.966Z,100091.97
2022-12-14T09:28:40.613Z,100085.78
2022-12-14T09:31:11.944Z,100086.44
2022-12-14T09:33:38.837Z,100091.97
2022-12-14T09:36:12.513Z,100087.47
2022-12-14T09:38:41.423Z,100087.16
2022-12-14T09:41:50.747Z,100085.19
2022-12-14T09:44:24.918Z,100088.16
2022-12-14T09:46:54.817Z,100081.16
2022-12-14T09:49:26.399Z,100091.75
2022-12-14T09:51:56.198Z,100086.38
2022-12-14T09:54:26.661Z,100080.94
2022-12-14T09:56:57.834Z,100074.81
2022-12-14T09:59:27.951Z,100071.25
2022-12-14T10:04:56.511Z,100073.25
2022-12-14T10:07:34.326Z,100071.28
2022-12-14T10:10:04.421Z,100071.91
2022-12-14T10:12:43.642Z,100079.22
2022-12-14T10:15:15.879Z,100075.44
2022-12-14T10:18:01.995Z,100084.47
2022-12-14T10:20:50.502Z,100081.41
2022-12-14T10:23:23.645Z,100076.91
2022-12-14T10:25:54.967Z,100087.47
2022-12-14T10:28:36.758Z,100072.75
2022-12-14T10:31:09.707Z,100070.69
2022-12-14T10:33:42.701Z,100063.59
2022-12-14T10:36:39.640Z,100066.41
2022-12-14T10:39:26.767Z,100061.88
2022-12-14T10:42:03.018Z,100061.50
2022-12-14T10:45:09.728Z,100065.00
2022-12-14T10:47:47.079Z,100053.53
2022-12-14T10:50:35.278Z,100054.84
2022-12-14T10:53:05.893Z,100047.06
2022-12-14T10:55:38.600Z,100048.50
2022-12-14T10:58:05.290Z,100039.00
2022-12-14T11:00:32.120Z,100036.06
2022-12-14T11:03:01.335Z,100039.97
2022-12-14T11:06:02.856Z,100029.44
2022-12-14T11:08:40.784Z,100032.38
2022-12-14T11:11:19.237Z,100017.09
2022-12-14T11:14:07.954Z,100022.66
2022-12-14T11:16:41.165Z,100021.38
2022-12-14T11:19:23.563Z,100017.63
2022-12-14T11:22:04.013Z,100013.09
2022-12-14T11:24:30.925Z,100013.59
2022-12-14T11:27:03.993Z,100005.69
2022-12-14T11:29:39.399Z,100006.28
2022-12-14T11:32:16.070Z,100010.38
2022-12-14T11:34:43.470Z,100012.59
2022-12-14T11:37:29.483Z,100016.66
2022-12-14T11:40:00.657Z,100019.00
2022-12-14T11:42:28.846Z,100008.63
2022-12-14T11:45:26.106Z,100007.31
2022-12-14T11:48:19.652Z,100001.63
2022-12-14T11:50:48.389Z,99998.91
2022-12-14T11:53:21.699Z,99993.81
2022-12-14T11:55:57.530Z,99989.34
2022-12-14T11:58:27.993Z,100000.81
2022-12-14T12:01:04.844Z,99998.69
2022-12-14T12:03:38.180Z,99997.66
2022-12-14T12:06:07.831Z,100008.53
2022-12-14T12:08:37.925Z,100010.97
2022-12-14T12:11:15.340Z,100011.69
2022-12-14T12:13:48.403Z,100014.81
2022-12-14T12:16:27.115Z,100007.91
2022-12-14T12:19:24.806Z,100003.53
2022-12-14T12:21:54.681Z,99999.97
2022-12-14T12:24:34.800Z,100006.50
2022-12-14T12:27:12.403Z,100006.97
2022-12-14T12:30:07.217Z,100000.97
2022-12-14T12:32:43.739Z,100008.47
2022-12-14T12:35:19.214Z,100008.28
2022-12-14T12:38:08.030Z,100010.00
2022-12-14T12:40:40.923Z,100012.34
2022-12-14T12:43:13.826Z,100013.16
2022-12-14T12:45:58.780Z,100015.47
2022-12-14T12:48:50.821Z,100015.38
2022-12-14T12:51:24.914Z,100017.00
2022-12-14T12:54:06.362Z,100017.81
2022-12-14T12:57:06.204Z,100026.13
2022-12-14T12:59:40.988Z,100016.47
2022-12-14T13:02:37.101Z,100015.44
2022-12-14T13:05:44.576Z,100020.41
2022-12-14T13:08:07.408Z,100022.97
2022-12-14T13:11:02.376Z,100027.13
2022-12-14T13:13:34.489Z,100019.41
2022-12-14T13:16:19.491Z,100023.66
2022-12-14T13:19:04.977Z,100013.50
2022-12-14T13:21:49.797Z,100019.50
2022-12-14T13:24:20.560Z,100016.34
2022-12-14T13:27:05.740Z,100023.16
2022-12-14T13:29:59.281Z,100021.56
2022-12-14T13:32:58.577Z,100030.19
2022-12-14T13:35:49.668Z,100009.16
2022-12-14T13:38:34.606Z,100009.28
2022-12-14T13:41:32.835Z,100007.75
2022-12-14T13:44:13.550Z,100006.75
2022-12-14T13:46:43.361Z,100018.06
2022-12-14T13:49:29.432Z,100014.31
2022-12-14T13:51:56.966Z,100017.69
2022-12-14T13:54:39.623Z,100023.88
2022-12-14T13:57:21.539Z,100030.78
2022-12-14T13:59:51.006Z,100028.25
2022-12-14T14:02:29.628Z,100025.63
2022-12-14T14:05:14.876Z,100027.22
2022-12-14T14:08:03.181Z,100022.25
2022-12-14T14:10:38.775Z,100020.53
2022-12-14T14:13:27.380Z,100013.50
2022-12-14T14:19:02.763Z,100015.06
2022-12-14T14:21:52.525Z,100016.16
2022-12-14T14:24:27.435Z,100021.25
2022-12-14T14:27:19.816Z,100029.81
2022-12-14T14:29:51.801Z,100023.22
2022-12-14T14:32:42.494Z,100021.69
2022-12-14T14:35:35.974Z,100026.97
2022-12-14T14:38:08.748Z,100029.94
2022-12-14T14:41:15.522Z,100027.38
2022-12-14T14:43:42.681Z,100025.75
2022-12-14T14:46:11.197Z,100025.16
2022-12-14T14:48:41.221Z,100032.28
2022-12-14T14:51:21.232Z,100033.53
2022-12-14T14:53:50.418Z,100030.47
2022-12-14T14:56:29.583Z,100033.19
2022-12-14T14:59:14.956Z,100039.41
2022-12-14T15:02:04.069Z,100041.44
2022-12-14T15:04:36.702Z,100041.75
2022-12-14T15:07:07.539Z,100045.41
2022-12-14T15:09:41.167Z,100058.41
2022-12-14T15:12:25.274Z,100057.06
2022-12-14T15:14:56.354Z,100056.53
2022-12-14T15:17:24.448Z,100062.03
2022-12-14T15:19:52.113Z,100064.03
2022-12-14T15:22:21.791Z,100072.84
2022-12-14T15:24:53.217Z,100068.19
2022-12-14T15:27:23.520Z,100066.06
2022-12-14T15:29:51.272Z,100073.13
2022-12-14T15:32:22.535Z,100073.53
2022-12-14T15:35:09.423Z,100076.25
2022-12-14T15:37:52.429Z,100075.72
2022-12-14T15:40:25.530Z,100067.69
2022-12-14T15:42:57.477Z,100073.94
2022-12-14T15:45:34.468Z,100078.59
2022-12-14T15:48:23.413Z,100073.81
2022-12-14T15:50:56.458Z,100078.56
2022-12-14T15:53:49.999Z,100079.72
2022-12-14T15:56:37.987Z,100081.72
2022-12-14T15:59:07.321Z,100082.81
2022-12-14T16:01:45.019Z,100072.88
2022-12-14T16:04:19.950Z,100075.63
2022-12-14T16:06:51.467Z,100076.69
2022-12-14T16:09:32.284Z,100081.25
2022-12-14T16:12:14.840Z,100077.25
2022-12-14T16:14:49.625Z,100079.16
2022-12-14T16:17:23.383Z,100076.91
2022-12-14T16:20:00.718Z,100083.84
2022-12-14T16:22:31.103Z,100085.66
2022-12-14T16:25:02.874Z,100092.53
2022-12-14T16:27:31.122Z,100087.75
2022-12-14T16:30:17.690Z,100091.19
2022-12-14T16:32:50.017Z,100094.63
2022-12-14T16:35:23.241Z,100093.97
2022-12-14T16:37:53.118Z,100098.44
2022-12-14T16:40:28.180Z,100100.31
2022-12-14T16:42:54.772Z,100102.06
2022-12-14T16:45:46.176Z,100108.09
2022-12-14T16:48:22.292Z,100110.81
2022-12-14T16:51:01.288Z,100107.56
2022-12-14T16:53:34.980Z,100109.38
2022-12-14T16:56:18.451Z,100108.72
2022-12-14T16:59:23.421Z,100111.44
2022-12-14T17:01:50.610Z,100103.19
2022-12-14T17:04:19.250Z,100114.31
2022-12-14T17:06:49.801Z,100111.25
2022-12-14T17:09:24.728Z,100106.41
2022-12-14T17:11:53.170Z,100107.50
2022-12-14T17:14:20.513Z,100111.94
2022-12-14T17:16:50.169Z,100119.69
2022-12-14T17:19:26.326Z,100113.81
2022-12-14T17:21:53.051Z,100108.94
2022-12-14T17:24:22.235Z,100107.31
2022-12-14T17:27:14.530Z,100116.13
2022-12-14T17:29:41.419Z,100110.34
2022-12-14T17:32:12.673Z,100113.88
2022-12-14T17:34:39.666Z,100120.72
2022-12-14T17:37:15.472Z,100123.41
2022-12-14T17:39:42.531Z,100123.69
2022-12-14T17:42:12.651Z,100121.34
2022-12-14T17:44:41.532Z,100121.59
2022-12-14T17:47:13.021Z,100120.84
2022-12-14T17:49:41.677Z,100128.50
2022-12-14T17:52:19.051Z,100132.75
2022-12-14T17:54:45.731Z,100138.00
2022-12-14T17:57:22.087Z,100134.72
2022-12-14T18:00:10.265Z,100143.47
2022-12-14T18:02:38.448Z,100136.94
2022-12-14T18:05:05.985Z,100136.13
2022-12-14T18:07:32.708Z,100138.56
2022-12-14T18:09:59.516Z,100138.66
2022-12-14T18:12:26.125Z,100137.94
2022-12-14T18:14:53.683Z,100138.00
2022-12-14T18:17:20.343Z,100138.91
2022-12-14T18:19:49.530Z,100139.06
2022-12-14T18:22:17.060Z,100142.75
2022-12-14T18:24:43.800Z,100150.41
2022-12-14T18:27:14.248Z,100154.88
2022-12-14T18:29:43.102Z,100150.72
2022-12-14T18:32:14.330Z,100157.50
2022-12-14T18:34:40.959Z,100149.09
2022-12-14T18:37:08.766Z,100145.94
2022-12-14T18:39:35.385Z,100156.91
2022-12-14T18:42:02.799Z,100153.66
2022-12-14T18:44:31.501Z,100156.44
2022-12-14T18:47:09.944Z,100163.28
2022-12-14T18:49:45.157Z,100165.72
2022-12-14T18:52:16.546Z,100165.88
2022-12-14T18:54:43.192Z,100163.44
2022-12-14T18:57:11.780Z,100160.25
2022-12-14T18:59:42.758Z,100164.56
2022-12-14T19:02:15.399Z,100164.72
2022-12-14T19:04:42.276Z,100165.78
2022-12-14T19:07:09.465Z,100170.09
2022-12-14T19:09:36.231Z,100170.16
2022-12-14T19:12:03.067Z,100168.69
2022-12-14T19:14:30.829Z,100180.59
2022-12-14T19:16:57.956Z,100178.94
2022-12-14T19:19:27.889Z,100178.22
2022-12-14T19:21:59.574Z,100185.06
2022-12-14T19:24:26.258Z,100187.69
2022-12-14T19:26:53.132Z,100190.28
2022-12-14T19:29:19.832Z,100191.19
2022-12-14T19:31:47.813Z,100195.41
2022-12-14T19:34:17.358Z,100191.34
2022-12-14T19:36:44.096Z,100194.00
2022-12-14T19:39:10.797Z,100186.66
2022-12-14T19:41:37.499Z,100194.25
2022-12-14T19:44:05.616Z,100191.66
2022-12-14T19:46:32.751Z,100190.00
2022-12-14T19:49:02.101Z,100190.84
2022-12-14T19:51:28.836Z,100192.53
2022-12-14T19:53:55.599Z,100199.38
2022-12-14T19:56:22.514Z,100189.28
2022-12-14T19:58:49.245Z,100187.56
2022-12-14T20:01:17.721Z,100190.16
2022-12-14T20:03:45.164Z,100179.28
2022-12-14T20:06:12.067Z,100187.81
2022-12-14T20:08:38.802Z,100174.44
2022-12-14T20:11:09.838Z,100180.22
2022-12-14T20:13:37.093Z,100190.16
2022-12-14T20:16:04.229Z,100188.41
2022-12-14T20:18:31.781Z,100192.53
2022-12-14T20:21:04.806Z,100195.88
2022-12-14T20:23:32.599Z,100200.06
2022-12-14T20:26:01.631Z,100197.53
2022-12-14T20:28:28.548Z,100204.28
2022-12-14T20:30:55.865Z,100214.38
2022-12-14T20:33:28.026Z,100216.81
2022-12-14T20:35:56.664Z,100218.47
2022-12-14T20:38:23.748Z,100229.28
2022-12-14T20:40:50.582Z,100231.72
2022-12-14T20:43:17.389Z,100231.81
2022-12-14T20:45:44.542Z,100227.59
2022-12-14T20:48:11.696Z,100228.47
2022-12-14T20:50:40.816Z,100242.66
2022-12-14T20:53:07.754Z,100253.56
2022-12-14T20:55:35.574Z,100249.41
2022-12-14T20:58:02.472Z,100248.75
2022-12-14T21:00:29.432Z,100252.16
2022-12-14T21:02:56.362Z,100267.28
2022-12-14T21:05:23.303Z,100276.50
2022-12-14T21:07:50.031Z,100276.34
2022-12-14T21:10:16.756Z,100282.22
2022-12-14T21:12:43.556Z,100275.56
2022-12-14T21:15:10.290Z,100284.00
2022-12-14T21:17:37.170Z,100271.28
2022-12-14T21:20:05.195Z,100270.34
2022-12-14T21:22:32.006Z,100273.69
2022-12-14T21:25:04.647Z,100272.84
2022-12-14T21:27:33.926Z,100277.75
2022-12-14T21:30:00.968Z,100272.81
2022-12-14T21:32:27.690Z,100276.28
2022-12-14T21:34:54.555Z,100261.94
2022-12-14T21:37:22.035Z,100259.34
2022-12-14T21:39:54.744Z,100261.88
2022-12-14T21:42:25.772Z,100270.28
2022-12-14T21:44:54.294Z,100269.38
2022-12-14T21:47:29.231Z,100267.66
2022-12-14T21:49:57.026Z,100271.88
2022-12-14T21:52:27.532Z,100265.97
2022-12-14T21:54:54.704Z,100275.84
2022-12-14T21:57:42.877Z,100274.16
2022-12-14T22:00:16.936Z,100268.22
2022-12-14T22:02:44.024Z,100267.31
2022-12-14T22:05:11.115Z,100279.19
2022-12-14T22:07:37.936Z,100278.38
2022-12-14T22:10:05.491Z,100282.47
2022-12-14T22:12:32.245Z,100270.53
2022-12-14T22:14:59.016Z,100267.09
2022-12-14T22:17:25.658Z,100271.03
2022-12-14T22:19:54.397Z,100271.69
2022-12-14T22:22:21.203Z,100268.28
2022-12-14T22:24:49.531Z,100275.03
2022-12-14T22:27:16.177Z,100279.19
2022-12-14T22:29:42.856Z,100275.75
2022-12-14T22:32:12.307Z,100275.75
2022-12-14T22:34:39.386Z,100263.06
2022-12-14T22:37:07.231Z,100262.09
2022-12-14T22:39:34.080Z,100258.66
2022-12-14T22:42:01.941Z,100262.75
2022-12-14T22:44:30.750Z,100266.00
2022-12-14T22:46:57.846Z,100266.75
2022-12-14T22:49:24.646Z,100277.53
2022-12-14T22:51:51.346Z,100281.66
2022-12-14T22:54:22.651Z,100281.63
2022-12-14T22:56:55.303Z,100279.88
2022-12-14T22:59:30.422Z,100283.22
2022-12-14T23:02:00.157Z,100286.56
2022-12-14T23:04:27.050Z,100289.97
2022-12-14T23:06:54.962Z,100292.50
2022-12-14T23:09:41.668Z,100292.44
2022-12-14T23:12:26.990Z,100297.50
2022-12-14T23:15:12.495Z,100309.41
2022-12-14T23:17:59.243Z,100313.78
2022-12-14T23:20:45.530Z,100308.88
2022-12-14T23:23:31.247Z,100321.50
2022-12-14T23:26:21.047Z,100323.38
2022-12-14T23:29:06.673Z,100323.47
2022-12-14T23:31:51.941Z,100323.50
2022-12-14T23:34:37.281Z,100320.94
2022-12-14T23:37:22.731Z,100321.69
2022-12-14T23:40:07.950Z,100320.75
2022-12-14T23:42:53.158Z,100313.13
2022-12-14T23:45:39.506Z,100317.34
2022-12-14T23:48:24.641Z,100313.19
2022-12-14T23:51:10.166Z,100310.66
2022-12-14T23:53:55.662Z,100312.31
2022-12-14T23:56:41.103Z,100318.19
2022-12-14T23:59:31.949Z,100321.50
